Weather History for PADK - January, 2014

Change the Weather History Date:

Friday, January 10, 2014

  Actual Average Record
Temperature  
Mean Temperature 37 °F -  
Max Temperature 39 °F 37 °F 47 °F (1962)
Min Temperature 35 °F 30 °F 12 °F (2002)
Degree Days  
Heating Degree Days 28    
Moisture  
Dew Point 31 °F    
Average Humidity 77    
Maximum Humidity 87    
Minimum Humidity 61    
Precipitation  
Precipitation 0.04 in - - ()
Sea Level Pressure  
Sea Level Pressure 28.91 in    
Wind  
Wind Speed 17 mph (SSW)    
Max Wind Speed 43 mph    
Max Gust Speed 53 mph    
Visibility 9 miles    
Events      
Averages and records for this station are not official NWS values.
T = Trace of Precipitation, MM = Missing Value Source: NWS Daily Summary

Daily Weather History Graph

Daily Weather History Graph

Search for Another Location

Airport or City:

Trip Planner

Search our weather history database for the weather conditions in past years. The results will help you decide how hot, cold, wet, or windy it might be!

Date:

Astronomy

Jan. 10, 2014 Rise Set
Actual Time 9:50 AM HST 5:58 PM HST
Civil Twilight 9:11 AM HST 6:37 PM HST
Nautical Twilight 8:28 AM HST 7:20 PM HST
Astronomical Twilight 7:47 AM HST 8:01 PM HST
Moon 2:20 PM HST (1/10) 5:01 AM HST (1/10)
Length of Visible Light 9h 26m
Length of Day
8h 07m
Waxing Gibbous, 76% of the Moon is Illuminated
Jan 10
Waxing Gibbous
Jan 15
Full
Jan 23
Last Quarter
Jan 30
New
Feb 6
First Quarter

Hourly Weather History & Observations

Time (HST) Temp. Windchill Dew Point Humidity Pressure Visibility Wind Dir Wind Speed Gust Speed Precip Events Conditions
12:16 AM 33.8 °F 30.8 °F 26.6 °F 75% 29.21 in 10.0 mi SSW 3.5 mph - N/A   Overcast
12:36 AM 35.6 °F 29.9 °F 24.8 °F 65% 29.21 in 10.0 mi SSE 6.9 mph - N/A   Mostly Cloudy
12:56 AM 35.6 °F 28.6 °F 26.6 °F 70% 29.20 in 10.0 mi South 9.2 mph - N/A   Overcast
1:16 AM 35.6 °F 28.0 °F 28.4 °F 75% 29.19 in 10.0 mi SSE 10.4 mph - N/A   Overcast
1:36 AM 35.6 °F 29.9 °F 28.4 °F 75% 29.17 in 10.0 mi South 6.9 mph - N/A   Overcast
1:56 AM 35.6 °F 28.0 °F 28.4 °F 75% 29.15 in 10.0 mi ESE 10.4 mph - N/A   Overcast
2:16 AM 35.6 °F 26.2 °F 30.2 °F 81% 29.14 in 10.0 mi ESE 15.0 mph - N/A   Overcast
2:36 AM 35.6 °F 28.0 °F 30.2 °F 81% 29.12 in 10.0 mi SE 10.4 mph - N/A   Overcast
2:56 AM 35.6 °F 28.6 °F 30.2 °F 81% 29.11 in 10.0 mi SE 9.2 mph - N/A   Overcast
3:16 AM 35.6 °F 26.2 °F 30.2 °F 81% 29.10 in 10.0 mi SE 15.0 mph 19.6 mph N/A   Overcast
3:36 AM 37.4 °F 29.8 °F 30.2 °F 75% 29.09 in 10.0 mi SE 11.5 mph 17.3 mph N/A   Overcast
3:56 AM 37.4 °F 28.2 °F 32.0 °F 81% 29.07 in 10.0 mi ESE 16.1 mph - N/A   Overcast
4:16 AM 37.4 °F 30.3 °F 32.0 °F 81% 29.07 in 10.0 mi ESE 10.4 mph - N/A   Overcast
4:36 AM 35.6 °F 25.9 °F 32.0 °F 87% 29.05 in 10.0 mi ESE 16.1 mph - N/A   Overcast
4:56 AM 37.4 °F 28.9 °F 32.0 °F 81% 29.04 in 10.0 mi SE 13.8 mph - N/A   Overcast
5:16 AM 37.4 °F 27.8 °F 32.0 °F 81% 29.02 in 10.0 mi ESE 17.3 mph - N/A   Overcast
5:36 AM 37.4 °F 30.8 °F 32.0 °F 81% 29.01 in 10.0 mi SE 9.2 mph 17.3 mph N/A   Overcast
5:56 AM 37.4 °F 29.3 °F 32.0 °F 81% 29.00 in 10.0 mi SSE 12.7 mph - N/A   Overcast
6:16 AM 37.4 °F 30.8 °F 33.8 °F 87% 28.98 in 10.0 mi SSE 9.2 mph - N/A   Overcast
6:36 AM 37.4 °F 34.9 °F 33.8 °F 87% 28.97 in 7.0 mi SSW 3.5 mph - N/A   Overcast
6:56 AM 39.2 °F 29.8 °F 35.6 °F 87% 28.95 in 7.0 mi SW 18.4 mph - N/A   Overcast
7:16 AM 39.2 °F 30.2 °F 35.6 °F 87% 28.95 in 5.0 mi SW 17.3 mph 28.8 mph N/A   Overcast
7:36 AM 39.2 °F 28.3 °F 35.6 °F 87% 28.95 in 9.0 mi WSW 25.3 mph 31.1 mph N/A   Overcast
7:56 AM 39.2 °F 28.3 °F 33.8 °F 81% 28.95 in 10.0 mi WSW 25.3 mph 31.1 mph N/A   Overcast
8:16 AM 39.2 °F 28.0 °F 33.8 °F 81% 28.95 in 10.0 mi WSW 26.5 mph 33.4 mph N/A   Mostly Cloudy
8:36 AM 39.2 °F 29.3 °F 33.8 °F 81% 28.95 in 10.0 mi WSW 20.7 mph 33.4 mph N/A   Overcast
8:56 AM 39.2 °F 29.3 °F 33.8 °F 81% 28.94 in 10.0 mi SW 20.7 mph 33.4 mph N/A   Overcast
9:16 AM 39.2 °F 29.6 °F 33.8 °F 81% 28.95 in 10.0 mi SW 19.6 mph 25.3 mph N/A   Overcast
9:36 AM 39.2 °F 27.8 °F 33.8 °F 81% 28.95 in 10.0 mi SW 27.6 mph 35.7 mph N/A   Overcast
9:56 AM 39.2 °F 28.5 °F 32.0 °F 75% 28.95 in 10.0 mi SW 24.2 mph 32.2 mph N/A   Overcast
10:16 AM 37.4 °F 26.9 °F 33.8 °F 87% 28.95 in 10.0 mi SW 20.7 mph 34.5 mph N/A   Mostly Cloudy
10:36 AM 39.2 °F 28.7 °F 32.0 °F 75% 28.95 in 8.0 mi SW 23.0 mph 35.7 mph N/A   Mostly Cloudy
10:56 AM 37.4 °F 26.1 °F 30.2 °F 75% 28.95 in 10.0 mi WSW 24.2 mph 31.1 mph N/A   Mostly Cloudy
11:16 AM 37.4 °F 26.4 °F 30.2 °F 75% 28.95 in 10.0 mi SW 23.0 mph 27.6 mph N/A   Overcast
11:36 AM 39.2 °F 28.0 °F 30.2 °F 70% 28.94 in 10.0 mi SW 26.5 mph 36.8 mph N/A   Mostly Cloudy
11:56 AM 39.2 °F 29.8 °F 32.0 °F 75% 28.94 in 10.0 mi SSW 18.4 mph - N/A   Mostly Cloudy
12:16 PM 39.2 °F 27.8 °F 30.2 °F 70% 28.94 in 9.0 mi SW 27.6 mph 39.1 mph N/A   Overcast
12:36 PM 37.4 °F 28.2 °F 30.2 °F 75% 28.94 in 10.0 mi SW 16.1 mph 31.1 mph N/A   Overcast
12:56 PM 39.2 °F 28.5 °F 30.2 °F 70% 28.92 in 10.0 mi SW 24.2 mph 28.8 mph N/A   Mostly Cloudy
1:16 PM 39.2 °F 28.3 °F 30.2 °F 70% 28.91 in 10.0 mi SW 25.3 mph 29.9 mph N/A   Overcast
1:36 PM 39.2 °F 28.0 °F 28.4 °F 65% 28.91 in 7.0 mi SW 26.5 mph 38.0 mph N/A   Mostly Cloudy
1:56 PM 39.2 °F 29.8 °F 30.2 °F 70% 28.90 in 9.0 mi SW 18.4 mph 34.5 mph N/A   Overcast
2:16 PM 39.2 °F 28.5 °F 28.4 °F 65% 28.89 in 10.0 mi SW 24.2 mph 33.4 mph N/A   Mostly Cloudy
2:36 PM 37.4 °F 26.9 °F 28.4 °F 70% 28.88 in 7.0 mi SSW 20.7 mph 38.0 mph N/A   Mostly Cloudy
2:56 PM 39.2 °F 27.8 °F 28.4 °F 65% 28.86 in 10.0 mi SSW 27.6 mph 35.7 mph N/A   Overcast
3:36 PM 39.2 °F 27.0 °F 28.4 °F 65% 28.83 in 10.0 mi SW 32.2 mph 42.6 mph N/A   Mostly Cloudy
3:56 PM 39.2 °F 26.6 °F 28.4 °F 65% 28.81 in 10.0 mi SSW 34.5 mph 41.4 mph N/A   Overcast
4:16 PM 39.2 °F 28.0 °F 28.4 °F 65% 28.81 in 10.0 mi SSW 26.5 mph 34.5 mph N/A   Overcast
4:36 PM 39.2 °F 28.7 °F 28.4 °F 65% 28.81 in 10.0 mi SSW 23.0 mph 39.1 mph N/A   Overcast
4:56 PM 37.4 °F 25.0 °F 28.4 °F 70% 28.79 in 10.0 mi SSW 29.9 mph 40.3 mph N/A   Mostly Cloudy
5:16 PM 37.4 °F 25.9 °F 30.2 °F 75% 28.79 in 4.0 mi SSW 25.3 mph 42.6 mph N/A   Overcast
5:36 PM 37.4 °F 24.8 °F 30.2 °F 75% 28.77 in 10.0 mi SSW 31.1 mph 41.4 mph N/A   Overcast
5:56 PM 37.4 °F 24.8 °F 28.4 °F 70% 28.77 in 10.0 mi SSW 31.1 mph 41.4 mph N/A   Overcast
6:16 PM 37.4 °F 24.6 °F 30.2 °F 75% 28.76 in 7.0 mi SSW 32.2 mph 50.6 mph N/A   Overcast
6:36 PM 37.4 °F 24.6 °F 30.2 °F 75% 28.74 in 10.0 mi SSW 32.2 mph 43.7 mph N/A   Overcast
6:56 PM 37.4 °F 23.8 °F 30.2 °F 75% 28.73 in 5.0 mi SW 36.8 mph 48.3 mph 0.01 in   Mostly Cloudy
7:16 PM 39.2 °F 27.4 °F 30.2 °F 70% 28.73 in 10.0 mi SW 29.9 mph 52.9 mph N/A   Overcast
7:36 PM 37.4 °F 23.6 °F 30.2 °F 75% 28.71 in 5.0 mi SW 38.0 mph 48.3 mph N/A   Overcast
8:36 PM 37.4 °F 23.5 °F 30.2 °F 75% 28.68 in 5.0 mi SW 39.1 mph 48.3 mph N/A   Overcast
8:56 PM 37.4 °F 23.3 °F 30.2 °F 75% 28.66 in 5.0 mi SW 40.3 mph 50.6 mph N/A   Overcast
9:16 PM 37.4 °F 23.0 °F 30.2 °F 75% 28.66 in 5.0 mi SW 42.6 mph 52.9 mph N/A   Overcast
9:36 PM 37.4 °F 24.0 °F 32.0 °F 81% 28.67 in 4.0 mi SW 35.7 mph 52.9 mph N/A   Overcast
9:56 PM 37.4 °F 23.8 °F 33.8 °F 87% 28.67 in 7.0 mi SW 36.8 mph 50.6 mph 0.02 in   Overcast
10:16 PM 37.4 °F 24.2 °F 33.8 °F 87% 28.66 in 10.0 mi SW 34.5 mph 46.0 mph N/A   Overcast
10:36 PM 37.4 °F 25.0 °F 32.0 °F 81% 28.67 in 10.0 mi SW 29.9 mph 43.7 mph N/A   Overcast
10:56 PM 37.4 °F 25.4 °F 33.8 °F 87% 28.67 in 10.0 mi WSW 27.6 mph 42.6 mph N/A   Overcast
11:16 PM 37.4 °F 24.8 °F 33.8 °F 87% 28.66 in 4.0 mi SW 31.1 mph 39.1 mph 0.01 in   Overcast
11:36 PM 37.4 °F 24.8 °F 33.8 °F 87% 28.67 in 3.0 mi WSW 31.1 mph 50.6 mph 0.01 in   Overcast
11:56 PM 35.6 °F 23.0 °F 32.0 °F 87% 28.67 in 5.0 mi WSW 27.6 mph 39.1 mph 0.03 in   Overcast